• Join FlightAware (Why Join?)
  • Login
  • US Flag 
06:43AM EDT


 

Airport Tracker/Info


-or-


 

Live Flight TrackerFlight Track Log ✈ UAL118 ✈ 15-Apr-2013 ✈ EDDF / FRA - KEWR

Flight Track Log - Related Links

Times and Time Zones

All times are in EDT time to prevent confusion due to time zone crossing. See the UAL118 flight status page for this flight to view local times or setup timezone preferences in your user account.

Time Position Orientation Groundspeed Altitude Reporting Facility
EDT Latitude Longitude Course Direction KTS MPH feet Rate Location/Type
02:59AM 50.1848 8.0957 298° West  Level FlightAware Approximate
03:00AM 50.2343 7.9341 299° West  Level FlightAware Approximate
03:01AM 50.2908 7.7759 299° West  Level FlightAware Approximate
03:02AM 50.3410 7.6125 295° West  Level FlightAware Approximate
03:03AM 50.3898 7.4479 295° West  Level FlightAware Approximate
03:04AM 50.4392 7.2836 299° West  Level FlightAware Approximate
03:05AM 50.4959 7.1249 299° West  Level FlightAware Approximate
03:06AM 50.5514 6.9629 298° West  Level FlightAware Approximate
03:07AM 50.6057 6.7997 298° West  Level FlightAware Approximate
03:08AM 50.6552 6.6326 294° West  Level FlightAware Approximate
03:09AM 50.7032 6.4642 294° West  Level FlightAware Approximate
03:10AM 50.7509 6.2973 298° West  Level FlightAware Approximate
03:11AM 50.8055 6.1337 298° West  Level FlightAware Approximate
03:12AM 50.8571 5.9675 294° West  Level FlightAware Approximate
03:13AM 50.9053 5.7985 294° West  Level FlightAware Approximate
03:14AM 50.9557 5.6310 297° West  Level FlightAware Approximate
03:15AM 51.0090 5.4656 297° West  Level FlightAware Approximate
03:16AM 51.0621 5.2998 297° West  Level FlightAware Approximate
03:17AM 51.1136 5.1325 296° West  Level FlightAware Approximate
03:18AM 51.1635 4.9639 295° West  Level FlightAware Approximate
03:19AM 51.2128 4.7946 295° West  Level FlightAware Approximate
03:20AM 51.2619 4.6249 295° West  Level FlightAware Approximate
03:21AM 51.3107 4.4549 295° West  Level FlightAware Approximate
03:22AM 51.3593 4.2846 295° West  Level FlightAware Approximate
03:23AM 51.4077 4.1139 294° West  Level FlightAware Approximate
03:24AM 51.4558 3.9428 294° West  Level FlightAware Approximate
03:25AM 51.5036 3.7713 294° West  Level FlightAware Approximate
03:26AM 51.5512 3.5996 294° West  Level FlightAware Approximate
03:27AM 51.5985 3.4274 294° West  Level FlightAware Approximate
03:28AM 51.6456 3.2549 294° West  Level FlightAware Approximate
03:29AM 51.6925 3.0820 294° West  Level FlightAware Approximate
03:30AM 51.7391 2.9088 294° West  Level FlightAware Approximate
03:31AM 51.7854 2.7352 293° West  Level FlightAware Approximate
03:32AM 51.8315 2.5612 293° West  Level FlightAware Approximate
03:33AM 51.8773 2.3869 293° West  Level FlightAware Approximate
03:34AM 51.9213 2.2112 291° West  Level FlightAware Approximate
03:35AM 51.9634 2.0342 291° West  Level FlightAware Approximate
03:36AM 52.0065 1.8576 292° West  Level FlightAware Approximate
03:37AM 52.0505 1.6814 292° West  Level FlightAware Approximate
03:38AM 52.0942 1.5048 292° West  Level FlightAware Approximate
03:39AM 52.1377 1.3279 292° West  Level FlightAware Approximate
03:40AM 52.1809 1.1506 292° West  Level FlightAware Approximate
03:41AM 52.2238 0.9730 292° West  Level FlightAware Approximate
03:42AM 52.2678 0.7960 292° West  Level FlightAware Approximate
03:43AM 52.3119 0.6188 292° West  Level FlightAware Approximate
03:44AM 52.3558 0.4413 292° West  Level FlightAware Approximate
03:45AM 52.3994 0.2634 292° West  Level FlightAware Approximate
03:46AM 52.4427 0.0852 292° West  Level FlightAware Approximate
03:47AM 52.4857 -0.0934 291° West  Level FlightAware Approximate
03:48AM 52.5274 -0.2730 291° West  Level FlightAware Approximate
03:49AM 52.5688 -0.4530 291° West  Level FlightAware Approximate
03:50AM 52.6101 -0.6331 291° West  Level FlightAware Approximate
03:51AM 52.6513 -0.8136 291° West  Level FlightAware Approximate
03:52AM 52.6922 -0.9944 291° West  Level FlightAware Approximate
03:53AM 52.7328 -1.1755 290° West  Level FlightAware Approximate
03:54AM 52.7732 -1.3569 290° West  Level FlightAware Approximate
03:55AM 52.8133 -1.5387 290° West  Level FlightAware Approximate
03:56AM 52.8531 -1.7208 290° West  Level FlightAware Approximate
03:57AM 52.8942 -1.9023 291° West  Level FlightAware Approximate
03:58AM 52.9345 -2.0844 289° West  Level FlightAware Approximate
03:59AM 52.9731 -2.2678 289° West  Level FlightAware Approximate
04:00AM 53.0113 -2.4515 289° West  Level FlightAware Approximate
04:01AM 53.0493 -2.6355 289° West  Level FlightAware Approximate
04:02AM 53.0870 -2.8199 289° West  Level FlightAware Approximate
04:03AM 53.1244 -3.0045 289° West  Level FlightAware Approximate
04:04AM 53.1615 -3.1895 289° West  Level FlightAware Approximate
04:05AM 53.1983 -3.3748 288° West  Level FlightAware Approximate
04:06AM 53.2408 -3.5561 288° West  Level FlightAware Approximate
04:07AM 53.2771 -3.7421 288° West  Level FlightAware Approximate
04:08AM 53.3131 -3.9283 288° West  Level FlightAware Approximate
04:09AM 53.3488 -4.1149 288° West  Level FlightAware Approximate
04:10AM 53.3842 -4.3018 288° West  Level FlightAware Approximate
04:11AM 53.4193 -4.4890 288° West  Level FlightAware Approximate
04:12AM 53.4541 -4.6765 287° West  Level FlightAware Approximate
04:13AM 53.4887 -4.8643 287° West  Level FlightAware Approximate
04:14AM 53.5229 -5.0524 287° West  Level FlightAware Approximate
04:15AM 53.5568 -5.2409 287° West  Level FlightAware Approximate
04:16AM 53.5905 -5.4296 287° West  Level FlightAware Approximate
04:17AM 53.6240 -5.6185 287° West  Level FlightAware Approximate
04:18AM 53.6574 -5.8077 287° West  Level FlightAware Approximate
04:19AM 53.6904 -5.9972 286° West  Level FlightAware Approximate
04:20AM 53.7231 -6.1870 286° West  Level FlightAware Approximate
04:21AM 53.7556 -6.3770 286° West  Level FlightAware Approximate
04:22AM 53.7877 -6.5674 286° West  Level FlightAware Approximate
04:23AM 53.8195 -6.7580 286° West  Level FlightAware Approximate
04:24AM 53.8510 -6.9490 286° West  Level FlightAware Approximate
04:25AM 53.8823 -7.1402 286° West  Level FlightAware Approximate
04:26AM 53.9132 -7.3317 285° West  Level FlightAware Approximate
04:27AM 53.9438 -7.5235 285° West  Level FlightAware Approximate
04:28AM 53.9741 -7.7156 285° West  Level FlightAware Approximate
04:29AM 54.0041 -7.9079 285° West  Level FlightAware Approximate
04:30AM 54.0338 -8.1005 285° West  Level FlightAware Approximate
04:31AM 54.0631 -8.2935 285° West  Level FlightAware Approximate
04:32AM 54.0922 -8.4866 284° West  Level FlightAware Approximate
04:33AM 54.1210 -8.6801 284° West  Level FlightAware Approximate
04:34AM 54.1494 -8.8738 284° West  Level FlightAware Approximate
04:35AM 54.1776 -9.0677 284° West  Level FlightAware Approximate
04:36AM 54.2054 -9.2620 284° West  Level FlightAware Approximate
04:37AM 54.2329 -9.4565 284° West  Level FlightAware Approximate
04:38AM 54.2601 -9.6512 284° West  Level FlightAware Approximate
04:39AM 54.2870 -9.8463 283° West  Level FlightAware Approximate
04:40AM 54.3136 -10.0415 283° West  Level FlightAware Approximate
04:41AM 54.3399 -10.2371 283° West  Level FlightAware Approximate
04:42AM 54.3658 -10.4328 283° West  Level FlightAware Approximate
04:43AM 54.3910 -10.6290 282° West  Level FlightAware Approximate
04:44AM 54.4151 -10.8257 282° West  Level FlightAware Approximate
04:45AM 54.4388 -11.0227 282° West  Level FlightAware Approximate
04:46AM 54.4628 -11.2196 282° West  Level FlightAware Approximate
04:47AM 54.4869 -11.4166 282° West  Level FlightAware Approximate
04:48AM 54.5108 -11.6139 282° West  Level FlightAware Approximate
04:49AM 54.5343 -11.8114 282° West  Level FlightAware Approximate
04:50AM 54.5575 -12.0091 282° West  Level FlightAware Approximate
04:51AM 54.5803 -12.2070 281° West  Level FlightAware Approximate
04:52AM 54.6029 -12.4052 281° West  Level FlightAware Approximate
04:53AM 54.6251 -12.6035 281° West  Level FlightAware Approximate
04:54AM 54.6470 -12.8021 281° West  Level FlightAware Approximate
04:55AM 54.6686 -13.0009 281° West  Level FlightAware Approximate
04:56AM 54.6898 -13.1999 281° West  Level FlightAware Approximate
04:57AM 54.7108 -13.3991 280° West  Level FlightAware Approximate
04:58AM 54.7314 -13.5986 280° West  Level FlightAware Approximate
04:59AM 54.7516 -13.7982 280° West  Level FlightAware Approximate
05:00AM 54.7716 -13.9980 280° West  Level FlightAware Approximate
05:01AM 54.7912 -14.1980 280° West  Level FlightAware Approximate
05:02AM 54.8105 -14.3982 280° West  Level FlightAware Approximate
05:03AM 54.8294 -14.5986 279° West  Level FlightAware Approximate
05:04AM 54.8480 -14.7992 279° West  Level FlightAware Approximate
05:05AM 54.8663 -15.0000 279° West  Level FlightAware Approximate
05:06AM 54.8843 -15.2009 279° West  Level FlightAware Approximate
05:07AM 54.9019 -15.4021 279° West  Level FlightAware Approximate
05:08AM 54.9192 -15.6033 279° West  Level FlightAware Approximate
05:09AM 54.9362 -15.8048 278° West  Level FlightAware Approximate
05:10AM 54.9528 -16.0065 278° West  Level FlightAware Approximate
05:11AM 54.9691 -16.2083 278° West  Level FlightAware Approximate
05:12AM 54.9851 -16.4102 278° West  Level FlightAware Approximate
05:13AM 55.0007 -16.6124 278° West  Level FlightAware Approximate
05:14AM 55.0160 -16.8146 278° West  Level FlightAware Approximate
05:15AM 55.0309 -17.0171 277° West  Level FlightAware Approximate
05:16AM 55.0456 -17.2196 277° West  Level FlightAware Approximate
05:17AM 55.0598 -17.4224 277° West  Level FlightAware Approximate
05:18AM 55.0660 -17.6369 273° West  Level Estimated
05:19AM 55.0717 -17.8515 273° West  Level Estimated
05:20AM 55.0771 -18.0662 273° West  Level Estimated
05:21AM 55.0821 -18.2810 272° West  Level Estimated
05:22AM 55.0867 -18.4957 272° West  Level Estimated
05:23AM 55.0910 -18.7106 272° West  Level Estimated
05:24AM 55.0948 -18.9254 272° West  Level Estimated
05:25AM 55.0983 -19.1403 272° West  Level Estimated
05:26AM 55.1014 -19.3553 272° West  Level Estimated
05:27AM 55.1041 -19.5703 271° West  Level Estimated
05:28AM 55.1065 -19.7853 271° West  Level Estimated
05:29AM 55.1084 -20.0003 271° West  Level Estimated
05:30AM 55.1100 -20.2154 271° West  Level Estimated
05:31AM 55.1112 -20.4304 271° West  Level Estimated
05:32AM 55.1121 -20.6455 270° West  Level Estimated
05:33AM 55.1125 -20.8606 270° West  Level Estimated
05:34AM 55.1126 -21.0757 270° West  Level Estimated
05:35AM 55.1123 -21.2908 270° West  Level Estimated
05:36AM 55.1116 -21.5058 270° West  Level Estimated
05:37AM 55.1105 -21.7209 270° West  Level Estimated
05:38AM 55.1091 -21.9360 269° West  Level Estimated
05:39AM 55.1073 -22.1510 269° West  Level Estimated
05:39AM 58.0000 -20.0000 285° West 444 511 34,000  Level ETMS Enhanced Traffic Management System
05:40AM 55.1051 -22.3660 269° West  Level Estimated
05:41AM 55.1025 -22.5810 269° West  Level Estimated
05:42AM 55.0995 -22.7960 269° West  Level Estimated
05:43AM 55.0962 -23.0109 269° West  Level Estimated
05:44AM 55.0925 -23.2258 268° West  Level Estimated
05:45AM 58.2152 -21.5861 284° West 444 511 34,000  Level FlightAware Transoceanic
05:46AM 58.2443 -21.8142 284° West 444 511 34,000  Level FlightAware Transoceanic
05:47AM 58.2730 -22.0427 283° West 444 511 34,000  Level FlightAware Transoceanic
05:48AM 58.3013 -22.2716 283° West 444 511 34,000  Level FlightAware Transoceanic
05:49AM 58.3292 -22.5008 283° West 444 511 34,000  Level FlightAware Transoceanic
05:50AM 58.3567 -22.7304 283° West 444 511 34,000  Level FlightAware Transoceanic
05:51AM 58.3838 -22.9604 283° West 444 511 34,000  Level FlightAware Transoceanic
05:52AM 58.4105 -23.1907 282° West 444 511 34,000  Level FlightAware Transoceanic
05:53AM 58.4367 -23.4213 282° West 444 511 34,000  Level FlightAware Transoceanic
05:54AM 58.4626 -23.6523 282° West 444 511 34,000  Level FlightAware Transoceanic
05:55AM 58.4880 -23.8836 282° West 444 511 34,000  Level FlightAware Transoceanic
05:56AM 58.5130 -24.1153 282° West 444 511 34,000  Level FlightAware Transoceanic
05:57AM 58.5376 -24.3473 281° West 444 511 34,000  Level FlightAware Transoceanic
05:58AM 58.5617 -24.5796 281° West 444 511 34,000  Level FlightAware Transoceanic
05:59AM 58.5855 -24.8122 281° West 444 511 34,000  Level FlightAware Transoceanic
06:00AM 58.6088 -25.0451 281° West 444 511 34,000  Level FlightAware Transoceanic
06:01AM 58.6317 -25.2784 281° West 444 511 34,000  Level FlightAware Transoceanic
06:02AM 58.6542 -25.5119 280° West 444 511 34,000  Level FlightAware Transoceanic
06:03AM 58.6763 -25.7458 280° West 444 511 34,000  Level FlightAware Transoceanic
06:04AM 58.6979 -25.9799 280° West 444 511 34,000  Level FlightAware Transoceanic
06:05AM 58.7191 -26.2143 280° West 444 511 34,000  Level FlightAware Transoceanic
06:06AM 58.7399 -26.4490 280° West 444 511 34,000  Level FlightAware Transoceanic
06:07AM 58.7603 -26.6840 279° West 444 511 34,000  Level FlightAware Transoceanic
06:08AM 58.7802 -26.9193 279° West 444 511 34,000  Level FlightAware Transoceanic
06:09AM 58.7997 -27.1548 279° West 444 511 34,000  Level FlightAware Transoceanic
06:10AM 58.8188 -27.3906 279° West 444 511 34,000  Level FlightAware Transoceanic
06:11AM 58.8374 -27.6266 279° West 444 511 34,000  Level FlightAware Transoceanic
06:12AM 58.8556 -27.8629 278° West 444 511 34,000  Level FlightAware Transoceanic
06:13AM 58.8734 -28.0995 278° West 444 511 34,000  Level FlightAware Transoceanic
06:14AM 58.8908 -28.3363 278° West 444 511 34,000  Level FlightAware Transoceanic
06:15AM 58.9077 -28.5733 278° West 444 511 34,000  Level FlightAware Transoceanic
06:16AM 58.9241 -28.8105 278° West 444 511 34,000  Level FlightAware Transoceanic
06:17AM 58.9402 -29.0480 277° West 444 511 34,000  Level FlightAware Transoceanic
06:18AM 58.9558 -29.2857 277° West 444 511 34,000  Level FlightAware Transoceanic
06:19AM 58.9710 -29.5236 277° West 444 511 34,000  Level FlightAware Transoceanic
06:20AM 58.9857 -29.7617 277° West 444 511 34,000  Level FlightAware Transoceanic
06:21AM 58.9999 -29.9989 277° West  Level FlightAware Approximate
06:22AM 59.0148 -30.2361 277° West  Level FlightAware Approximate
06:23AM 59.0089 -30.2360 274° West  Level FlightAware Approximate
06:24AM 59.0174 -30.4744 274° West  Level FlightAware Approximate
06:25AM 59.0256 -30.7129 274° West  Level FlightAware Approximate
06:26AM 59.0332 -30.9515 274° West  Level FlightAware Approximate
06:27AM 59.0405 -31.1902 273° West  Level FlightAware Approximate
06:28AM 59.0472 -31.4290 273° West  Level FlightAware Approximate
06:29AM 59.0536 -31.6679 273° West  Level FlightAware Approximate
06:30AM 59.0595 -31.9069 273° West  Level FlightAware Approximate
06:31AM 59.0650 -32.1459 273° West  Level FlightAware Approximate
06:32AM 59.0700 -32.3851 272° West  Level FlightAware Approximate
06:33AM 59.0746 -32.6242 272° West  Level FlightAware Approximate
06:34AM 59.0788 -32.8635 272° West  Level FlightAware Approximate
06:35AM 59.0825 -33.1028 272° West  Level FlightAware Approximate
06:36AM 59.0858 -33.3422 272° West  Level FlightAware Approximate
06:37AM 59.0886 -33.5816 271° West  Level FlightAware Approximate
06:38AM 59.0910 -33.8210 271° West  Level FlightAware Approximate
06:39AM 59.0929 -34.0605 271° West  Level FlightAware Approximate
06:40AM 59.0945 -34.3000 271° West  Level FlightAware Approximate
06:41AM 59.0955 -34.5395 271° West  Level FlightAware Approximate
06:42AM 59.0962 -34.7790 270° West  Level FlightAware Approximate
06:43AM 59.0964 -35.0185 270° West  Level FlightAware Approximate
06:44AM 59.0961 -35.2581 270° West  Level FlightAware Approximate
06:45AM 59.0954 -35.4976 270° West  Level FlightAware Approximate
06:46AM 59.0943 -35.7371 270° West  Level FlightAware Approximate
06:47AM 59.0927 -35.9766 269° West  Level FlightAware Approximate
06:48AM 59.0907 -36.2160 269° West  Level FlightAware Approximate
06:49AM 59.0882 -36.4555 269° West  Level FlightAware Approximate
06:50AM 59.0853 -36.6949 269° West  Level FlightAware Approximate
06:51AM 59.0820 -36.9342 269° West  Level FlightAware Approximate
06:52AM 59.0782 -37.1735 268° West  Level FlightAware Approximate
06:53AM 59.0740 -37.4128 268° West  Level FlightAware Approximate
06:54AM 59.0693 -37.6520 268° West  Level FlightAware Approximate
06:55AM 59.0642 -37.8911 268° West  Level FlightAware Approximate
06:56AM 59.0587 -38.1301 268° West  Level FlightAware Approximate
06:57AM 59.0527 -38.3691 267° West  Level FlightAware Approximate
06:58AM 59.0462 -38.6080 267° West  Level FlightAware Approximate
06:59AM 59.0394 -38.8467 267° West  Level FlightAware Approximate
07:00AM 59.0321 -39.0854 267° West  Level FlightAware Approximate
07:01AM 59.0243 -39.3240 266° West  Level FlightAware Approximate
07:02AM 59.0162 -39.5625 266° West  Level FlightAware Approximate
07:03AM 59.0075 -39.8008 266° West  Level FlightAware Approximate
07:04AM 58.9942 -40.0375 253° West  Level FlightAware Approximate
07:05AM 58.9585 -40.2660 253° West  Level FlightAware Approximate
07:06AM 58.9224 -40.4939 253° West  Level FlightAware Approximate
07:07AM 58.8860 -40.7214 253° West  Level FlightAware Approximate
07:08AM 58.8491 -40.9484 253° West  Level FlightAware Approximate
07:09AM 58.8118 -41.1749 252° West  Level FlightAware Approximate
07:10AM 58.7742 -41.4010 252° West  Level FlightAware Approximate
07:11AM 58.7361 -41.6265 252° West  Level FlightAware Approximate
07:12AM 58.6977 -41.8516 252° West  Level FlightAware Approximate
07:13AM 58.6588 -42.0761 252° West  Level FlightAware Approximate
07:14AM 58.6196 -42.3001 251° West  Level FlightAware Approximate
07:15AM 58.5799 -42.5237 251° West  Level FlightAware Approximate
07:16AM 58.5399 -42.7467 251° West  Level FlightAware Approximate
07:17AM 58.4995 -42.9692 251° West  Level FlightAware Approximate
07:18AM 58.4599 -43.1920 251° West  Level FlightAware Approximate
07:19AM 58.4199 -43.4142 251° West  Level FlightAware Approximate
07:20AM 58.3794 -43.6360 251° West  Level FlightAware Approximate
07:21AM 58.3386 -43.8572 251° West  Level FlightAware Approximate
07:22AM 58.2975 -44.0779 251° West  Level FlightAware Approximate
07:23AM 58.2559 -44.2982 250° West  Level FlightAware Approximate
07:24AM 58.2139 -44.5178 250° West  Level FlightAware Approximate
07:25AM 58.1714 -44.7368 250° West  Level FlightAware Approximate
07:26AM 58.1285 -44.9553 250° West  Level FlightAware Approximate
07:27AM 58.0852 -45.1733 250° West  Level FlightAware Approximate
07:28AM 58.0416 -45.3907 249° West  Level FlightAware Approximate
07:29AM 57.9976 -45.6076 249° West  Level FlightAware Approximate
07:30AM 57.9532 -45.8240 249° West  Level FlightAware Approximate
07:31AM 57.9085 -46.0398 249° West  Level FlightAware Approximate
07:32AM 57.8634 -46.2551 249° West  Level FlightAware Approximate
07:33AM 57.8179 -46.4699 248° West  Level FlightAware Approximate
07:34AM 57.7721 -46.6841 248° West  Level FlightAware Approximate
07:35AM 57.7259 -46.8978 248° West  Level FlightAware Approximate
07:36AM 57.6793 -47.1109 248° West  Level FlightAware Approximate
07:37AM 57.6324 -47.3235 248° West  Level FlightAware Approximate
07:38AM 57.5852 -47.5355 247° West  Level FlightAware Approximate
07:39AM 57.5376 -47.7470 247° West  Level FlightAware Approximate
07:40AM 57.4896 -47.9579 247° West  Level FlightAware Approximate
07:41AM 57.4413 -48.1683 247° West  Level FlightAware Approximate
07:42AM 57.3926 -48.3781 247° West  Level FlightAware Approximate
07:43AM 57.3436 -48.5873 247° West  Level FlightAware Approximate
07:44AM 57.2942 -48.7960 246° West  Level FlightAware Approximate
07:45AM 57.2445 -49.0042 246° West  Level FlightAware Approximate
07:46AM 57.1945 -49.2117 246° West  Level FlightAware Approximate
07:47AM 57.1441 -49.4187 246° West  Level FlightAware Approximate
07:48AM 57.0933 -49.6252 246° West  Level FlightAware Approximate
07:49AM 57.0423 -49.8310 246° West  Level FlightAware Approximate
07:50AM 56.9932 -50.0380 252° West  Level FlightAware Approximate
07:51AM 56.9544 -50.2522 252° West  Level FlightAware Approximate
07:52AM 56.9153 -50.4660 252° West  Level FlightAware Approximate
07:53AM 56.8758 -50.6793 251° West  Level FlightAware Approximate
07:54AM 56.8359 -50.8922 251° West  Level FlightAware Approximate
07:55AM 56.7957 -51.1046 251° West  Level FlightAware Approximate
07:56AM 56.7552 -51.3166 251° West  Level FlightAware Approximate
07:57AM 56.7142 -51.5281 251° West  Level FlightAware Approximate
07:58AM 56.6730 -51.7391 250° West  Level FlightAware Approximate
07:59AM 56.6313 -51.9497 250° West  Level FlightAware Approximate
08:00AM 56.5893 -52.1598 250° West  Level FlightAware Approximate
08:01AM 56.5470 -52.3695 250° West  Level FlightAware Approximate
08:02AM 56.5042 -52.5786 250° West  Level FlightAware Approximate
08:03AM 56.4612 -52.7873 250° West  Level FlightAware Approximate
08:04AM 56.4178 -52.9955 249° West  Level FlightAware Approximate
08:05AM 56.3740 -53.2033 249° West  Level FlightAware Approximate
08:06AM 56.3299 -53.4106 249° West  Level FlightAware Approximate
08:07AM 56.2857 -53.6175 249° West  Level FlightAware Approximate
08:08AM 56.2423 -53.8215 249° West  Level FlightAware Approximate
08:09AM 56.1986 -54.0250 249° West  Level FlightAware Approximate
08:10AM 56.1545 -54.2281 249° West  Level FlightAware Approximate
08:10AM 55.7167 -56.1500 248° West 490 564 34,000  Level Moncton Center
08:10AM 55.6833 -56.2667 243° Southwest 490 564 34,000  Level Gander Center
08:11AM 56.1101 -54.4307 249° West  Level FlightAware Approximate
08:11AM 55.6167 -56.5167 245° Southwest 490 564 34,000  Level Gander Center
08:12AM 56.0653 -54.6328 248° West  Level FlightAware Approximate
08:12AM 55.5333 -56.7000 231° Southwest 500 575 34,000  Level Gander Center
08:13AM 56.0203 -54.8345 248° West  Level FlightAware Approximate
08:13AM 55.4667 -56.9167 242° Southwest 500 575 34,000  Level Gander Center
08:14AM 55.9749 -55.0356 248° West  Level FlightAware Approximate
08:14AM 55.3667 -57.1000 226° Southwest 500 575 34,000  Level Gander Center
08:15AM 55.9291 -55.2364 248° West  Level FlightAware Approximate
08:15AM 55.2833 -57.2833 231° Southwest 500 575 34,000  Level Gander Center
08:16AM 55.2000 -57.4833 234° Southwest 500 575 34,000  Level Gander Center
08:17AM 55.1167 -57.6667 232° Southwest 500 575 34,000  Level Gander Center
08:18AM 55.0167 -57.8667 229° Southwest 500 575 34,000  Level Gander Center
08:19AM 54.9333 -58.0500 232° Southwest 500 575 34,000  Level Gander Center
08:20AM 54.8500 -58.2333 232° Southwest 500 575 34,000  Level Gander Center
08:21AM 54.7667 -58.4167 232° Southwest 500 575 34,000  Level Gander Center
08:22AM 54.6667 -58.6167 229° Southwest 500 575 34,000  Level Gander Center
08:23AM 54.6500 -58.6833 247° West 500 575 34,000  Level Moncton Center
08:23AM 54.5833 -58.8000 225° Southwest 500 575 34,000  Level Gander Center
08:24AM 54.5000 -58.9833 232° Southwest 500 575 34,000  Level Gander Center
08:25AM 54.4167 -59.1500 229° Southwest 500 575 34,000  Level Gander Center
08:26AM 54.3333 -59.3333 232° Southwest 500 575 34,000  Level Gander Center
08:27AM 54.2333 -59.5333 230° Southwest 500 575 34,000  Level Gander Center
08:28AM 54.1500 -59.6833 227° Southwest 490 564 34,000  Level Gander Center
08:29AM 54.0500 -59.8833 230° Southwest 490 564 34,000  Level Gander Center
08:30AM 53.9667 -60.0667 232° Southwest 490 564 34,000  Level Gander Center
08:31AM 53.8833 -60.2333 230° Southwest 500 575 34,000  Level Gander Center
08:32AM 53.8000 -60.4000 230° Southwest 490 564 34,000  Level Gander Center
08:33AM 53.7000 -60.6000 230° Southwest 490 564 34,000  Level Gander Center
08:34AM 53.6167 -60.7667 230° Southwest 490 564 34,000  Level Gander Center
08:35AM 53.5167 -60.9500 228° Southwest 490 564 34,000  Level Gander Center
08:36AM 53.4333 -61.1167 230° Southwest 490 564 34,000  Level Gander Center
08:37AM 53.3500 -61.2833 230° Southwest 490 564 34,000  Level Gander Center
08:38AM 53.2500 -61.4500 225° Southwest 490 564 34,000  Level Gander Center
08:39AM 53.1667 -61.6167 230° Southwest 490 564 34,000  Level Gander Center
08:40AM 53.0667 -61.8167 230° Southwest 490 564 34,000  Level Gander Center
08:41AM 52.9833 -61.9833 230° Southwest 490 564 34,000  Level Gander Center
08:42AM 52.8833 -62.1333 222° Southwest 490 564 34,000  Level Gander Center
08:43AM 52.7833 -62.3000 225° Southwest 490 564 34,000  Level Gander Center
08:44AM 52.7000 -62.4667 231° Southwest 490 564 34,000  Level Gander Center
08:45AM 52.6167 -62.6333 231° Southwest 490 564 34,000  Level Gander Center
08:46AM 52.5167 -62.8000 225° Southwest 480 552 34,000  Level Gander Center
08:47AM 52.4333 -62.9500 228° Southwest 480 552 34,000  Level Gander Center
08:48AM 52.3500 -63.1167 231° Southwest 480 552 34,000  Level Gander Center
08:49AM 52.3000 -63.2000 226° Southwest 480 552 34,000  Level Moncton Center
08:50AM 52.2167 -63.3667 231° Southwest 480 552 34,000  Level Moncton Center
08:51AM 52.1167 -63.5333 226° Southwest 480 552 34,000  Level Moncton Center
08:51AM 52.0667 -63.5500 192° South 480 552 34,000  Level Montreal Center
08:52AM 51.9833 -63.7000 228° Southwest 480 552 34,000  Level Montreal Center
08:53AM 51.9333 -63.8333 239° Southwest 480 552 34,000  Level Moncton Center
08:53AM 51.8833 -63.9333 231° Southwest 480 552 34,000  Level Gander Center
08:54AM 51.8000 -64.0667 225° Southwest 480 552 34,000  Level Gander Center
08:55AM 51.7500 -64.1500 226° Southwest 480 552 34,000  Level Moncton Center
08:56AM 51.6667 -64.2833 225° Southwest 470 541 34,000  Level Moncton Center
08:57AM 51.5667 -64.4500 226° Southwest 470 541 34,000  Level Moncton Center
08:58AM 51.4833 -64.6167 231° Southwest 470 541 34,000  Level Moncton Center
08:58AM 51.4167 -64.6833 212° Southwest 470 541 34,000  Level Gander Center
08:59AM 51.3833 -64.7500 231° Southwest 470 541 34,000  Level Moncton Center
08:59AM 51.3333 -64.8500 231° Southwest 470 541 34,000  Level Gander Center
09:00AM 51.3000 -64.9000 223° Southwest 470 541 34,000  Level Moncton Center
09:01AM 51.2000 -65.0667 226° Southwest 460 529 34,000  Level Moncton Center
09:02AM 51.1167 -65.2000 225° Southwest 460 529 34,000  Level Moncton Center
09:02AM 51.0667 -65.2833 226° Southwest 460 529 34,000  Level Gander Center
09:03AM 50.9833 -65.4333 229° Southwest 460 529 34,000  Level Gander Center
09:04AM 50.9333 -65.4833 212° Southwest 460 529 34,000  Level Moncton Center
09:05AM 50.8333 -65.6167 220° Southwest 460 529 34,000  Level Moncton Center
09:05AM 50.8000 -65.6667 223° Southwest 460 529 34,000  Level Montreal Center
09:06AM 50.7167 -65.7833 222° Southwest 460 529 34,000  Level Montreal Center
09:07AM 50.6333 -65.9500 232° Southwest 460 529 34,000  Level Montreal Center
09:08AM 50.5333 -66.0667 217° Southwest 460 529 34,000  Level Montreal Center
09:09AM 50.4500 -66.2167 229° Southwest 450 518 34,000  Level Montreal Center
09:10AM 50.3500 -66.3500 220° Southwest 450 518 34,000  Level Montreal Center
09:11AM 50.2667 -66.5000 229° Southwest 450 518 34,000  Level Montreal Center
09:13AM 50.1167 -66.7500 227° Southwest 440 506 34,000  Level Moncton Center
09:13AM 50.0667 -66.7833 203° Southwest 450 518 34,000  Level Montreal Center
09:14AM 49.9833 -66.9333 229° Southwest 450 518 34,000  Level Montreal Center
09:15AM 49.8833 -67.0500 217° Southwest 440 506 34,000  Level Montreal Center
09:16AM 49.8167 -67.1667 228° Southwest 440 506 34,000  Level Montreal Center
09:17AM 49.7333 -67.3167 229° Southwest 440 506 34,000  Level Montreal Center
09:18AM 49.6333 -67.4333 217° Southwest 440 506 34,000  Level Montreal Center
09:19AM 49.5500 -67.5833 229° Southwest 440 506 34,000  Level Montreal Center
09:20AM 49.4500 -67.7000 217° Southwest 440 506 34,000  Level Montreal Center
09:21AM 49.3667 -67.8500 230° Southwest 440 506 34,000  Level Montreal Center
09:22AM 49.2667 -67.9667 217° Southwest 440 506 34,000  Level Montreal Center
09:23AM 49.1833 -68.1167 230° Southwest 450 518 34,000  Level Montreal Center
09:24AM 49.0833 -68.2333 217° Southwest 450 518 34,000  Level Montreal Center
09:25AM 48.9667 -68.3500 213° Southwest 460 529 34,000  Level Montreal Center
09:26AM 48.8833 -68.4500 218° Southwest 460 529 34,000  Level Montreal Center
09:27AM 48.7667 -68.5667 213° Southwest 460 529 34,000  Level Montreal Center
09:28AM 48.6667 -68.6833 218° Southwest 460 529 34,000  Level Montreal Center
09:29AM 48.5500 -68.7833 210° Southwest 460 529 34,000  Level Montreal Center
09:30AM 48.4333 -68.9000 214° Southwest 460 529 34,000  Level Montreal Center
09:31AM 48.3500 -69.0000 219° Southwest 460 529 34,000  Level Montreal Center
09:32AM 48.2333 -69.1000 210° Southwest 460 529 34,000  Level Montreal Center
09:33AM 48.1167 -69.2167 214° Southwest 460 529 34,000  Level Montreal Center
09:34AM 48.0167 -69.3000 209° Southwest 460 529 34,000  Level Montreal Center
09:35AM 47.9167 -69.4167 218° Southwest 460 529 34,000  Level Montreal Center
09:36AM 47.8000 -69.5167 210° Southwest 460 529 34,000  Level Montreal Center
09:37AM 47.6833 -69.6333 214° Southwest 460 529 34,000  Level Montreal Center
09:38AM 47.6000 -69.7333 219° Southwest 460 529 34,000  Level Montreal Center
09:39AM 47.4833 -69.8333 210° Southwest 460 529 34,000  Level Montreal Center
09:40AM 47.3667 -69.9333 210° Southwest 460 529 34,000  Level Montreal Center
09:41AM 47.2833 -70.0500 224° Southwest 460 529 34,000  Level Montreal Center
09:42AM 47.1500 -70.1333 203° Southwest 460 529 34,000  Level Montreal Center
09:43AM 47.0500 -70.2500 218° Southwest 460 529 34,000  Level Montreal Center
09:44AM 46.9333 -70.3333 206° Southwest 460 529 34,000  Level Montreal Center
09:45AM 46.8333 -70.4500 219° Southwest 460 529 34,000  Level Montreal Center
09:46AM 46.7333 -70.5500 214° Southwest 460 529 34,000  Level Montreal Center
09:47AM 46.6000 -70.6667 211° Southwest 460 529 34,000  Level Montreal Center
09:48AM 46.5000 -70.7500 210° Southwest 460 529 34,000  Level Montreal Center
09:49AM 46.4000 -70.8667 219° Southwest 460 529 34,000  Level Montreal Center
09:50AM 46.2833 -70.9667 211° Southwest 470 541 34,000  Level Montreal Center
09:51AM 46.1667 -71.0500 206° Southwest 470 541 34,000  Level Montreal Center
09:52AM 46.0667 -71.1500 215° Southwest 470 541 34,000  Level Montreal Center
09:53AM 45.9667 -71.2667 219° Southwest 460 529 34,000  Level Montreal Center
09:54AM 45.8500 -71.3500 206° Southwest 450 518 34,000  Level Montreal Center
09:55AM 45.7500 -71.4500 215° Southwest 450 518 34,000  Level Montreal Center
09:56AM 45.6333 -71.5333 207° Southwest 440 506 34,000  Level Montreal Center
09:57AM 45.5167 -71.6333 211° Southwest 440 506 34,000  Level Montreal Center
09:58AM 45.4167 -71.7167 210° Southwest 440 506 34,000  Level Montreal Center
09:59AM 45.3333 -71.8167 220° Southwest 440 506 34,000  Level Montreal Center
10:00AM 45.2167 -71.9000 207° Southwest 440 506 34,000  Level Montreal Center
10:01AM 45.1167 -72.0000 215° Southwest 440 506 34,000  Level Montreal Center
10:02AM 45.0000 -72.0833 207° Southwest 440 506 34,000 -180 Level Montreal Center
10:03AM 44.9000 -72.1833 215° Southwest 440 506 33,700 -780 Descending Montreal Center
10:04AM 44.7986 -72.2908 217° Southwest 448 516 32,300 -780 Descending Boston Center
10:05AM 44.6925 -72.3847 212° Southwest 453 521 32,000 -180 Descending Boston Center
10:06AM 44.5842 -72.4722 210° Southwest 453 521 32,000 -60 Level Boston Center
10:07AM 44.4758 -72.5653 212° Southwest 453 521 31,900 -600 Descending Boston Center
10:08AM 44.3675 -72.6550 211° Southwest 453 521 30,800 -960 Descending Boston Center
10:09AM 44.2589 -72.7444 211° Southwest 453 521 30,000 -420 Descending Boston Center
10:10AM 44.1503 -72.8364 211° Southwest 453 521 30,000 -600 Level Boston Center
10:11AM 44.0289 -72.9367 211° Southwest 453 521 28,900 -1,020 Descending Boston Center
10:12AM 43.9222 -73.0253 211° Southwest 453 521 28,000 -840 Descending Boston Center
10:13AM 43.8156 -73.1133 211° Southwest 453 521 27,300 -960 Descending Boston Center
10:15AM 43.6878 -73.2181 211° Southwest 448 516 26,000 -600 Descending Boston Center
10:16AM 43.5956 -73.2944 211° Southwest 448 516 26,000 -120 Level Boston Center
10:17AM 43.4886 -73.3786 210° Southwest 448 516 25,800 -780 Descending Boston Center
10:18AM 43.3836 -73.4628 210° Southwest 448 516 24,400 -1,080 Descending Boston Center
10:19AM 43.2597 -73.5606 210° Southwest 448 516 23,400 -1,200 Descending Boston Center
10:20AM 43.1528 -73.6297 205° Southwest 443 510 22,100 -1,260 Descending Boston Center
10:21AM 43.0314 -73.6842 198° South 425 489 21,000 -1,260 Descending Boston Center
10:22AM 42.9203 -73.7300 197° South 420 483 19,600 -1,680 Descending Boston Center
10:23AM 42.8114 -73.7817 199° South 420 483 17,700 -1,800 Descending Boston Center
10:24AM 42.7003 -73.8272 197° South 420 483 16,000 -900 Descending Boston Center
10:25AM 42.5936 -73.8756 198° South 420 483 16,000  Level Boston Center
10:26AM 42.4972 -73.9156 197° South 415 478 16,000  Level Boston Center
10:27AM 42.3775 -73.9689 198° South 415 478 16,000  Level Boston Center
10:28AM 42.2811 -74.0117 198° South 408 470 16,000  Level Boston Center
10:29AM 42.1636 -74.0647 199° South 413 475 16,000 -120 Level Boston Center
10:30AM 42.0650 -74.1069 198° South 413 475 15,800 -1,380 Descending Boston Center
10:31AM 41.9519 -74.1542 197° South 402 463 13,400 -2,280 Descending Boston Center
10:32AM 41.8636 -74.1964 200° South 384 442 11,300 -1,680 Descending Boston Center
10:33AM 41.7628 -74.2408 198° South 366 421 10,100 -960 Descending Boston Center
10:34AM 41.6917 -74.2694 197° South 319 367 9,500 -960 Descending Boston Center
10:35AM 41.6139 -74.3061 199° South 280 322 8,300 -840 Descending Boston Center
10:36AM 41.5508 -74.3319 197° South 270 311 7,900 -480 Descending Boston Center
10:37AM 41.4733 -74.3656 198° South 270 311 7,400 -360 Descending Boston Center
10:40AM 41.3040 -74.4245 198° South  Level FlightAware Approximate
10:40AM 41.2333 -74.3833 198° South 272 313 6,500  Level New York TRACON
10:41AM 41.1667 -74.3500 159° South 270 311 5,500 -600 Descending New York TRACON
10:42AM 41.1000 -74.3000 151° Southeast 266 306 5,400 -600 Descending New York TRACON
10:43AM 41.0333 -74.2333 143° Southeast 262 302 4,300 -720 Descending New York TRACON
10:44AM 40.9833 -74.1833 143° Southeast 254 292 4,000 -180 Descending New York TRACON
10:45AM 40.9333 -74.1333 143° Southeast 246 283 4,000 -480 Level New York TRACON
10:46AM 40.8833 -74.0833 143° Southeast 225 259 3,100 -780 Descending New York TRACON
10:47AM 40.8167 -74.0833 180° South 210 242 2,500 -600 Descending New York TRACON